sensor_id;sensor_type;location;lat;lon;timestamp;P1;durP1;ratioP1;P2;durP2;ratioP2
29412;SDS011;16389;50.126;8.450;2022-11-11T00:01:05;12.18;;;7.22;;
29412;SDS011;16389;50.126;8.450;2022-11-11T00:03:39;12.40;;;6.28;;
29412;SDS011;16389;50.126;8.450;2022-11-11T00:06:06;8.98;;;5.43;;
29412;SDS011;16389;50.126;8.450;2022-11-11T00:08:36;19.65;;;5.30;;
29412;SDS011;16389;50.126;8.450;2022-11-11T00:11:03;13.52;;;5.85;;
29412;SDS011;16389;50.126;8.450;2022-11-11T00:13:34;13.90;;;5.45;;
29412;SDS011;16389;50.126;8.450;2022-11-11T00:16:02;10.70;;;6.32;;
29412;SDS011;16389;50.126;8.450;2022-11-11T00:18:33;11.50;;;6.47;;
29412;SDS011;16389;50.126;8.450;2022-11-11T00:21:18;12.95;;;6.80;;
29412;SDS011;16389;50.126;8.450;2022-11-11T00:24:02;12.10;;;6.80;;
29412;SDS011;16389;50.126;8.450;2022-11-11T00:26:46;19.13;;;6.95;;
29412;SDS011;16389;50.126;8.450;2022-11-11T00:29:12;14.48;;;6.00;;
29412;SDS011;16389;50.126;8.450;2022-11-11T00:31:38;10.98;;;6.18;;
29412;SDS011;16389;50.126;8.450;2022-11-11T00:34:23;11.18;;;4.68;;
29412;SDS011;16389;50.126;8.450;2022-11-11T00:36:49;12.00;;;6.45;;
29412;SDS011;16389;50.126;8.450;2022-11-11T00:39:15;12.32;;;6.38;;
29412;SDS011;16389;50.126;8.450;2022-11-11T00:41:40;10.82;;;6.22;;
29412;SDS011;16389;50.126;8.450;2022-11-11T00:44:06;15.80;;;6.10;;
29412;SDS011;16389;50.126;8.450;2022-11-11T00:46:31;14.38;;;5.95;;
29412;SDS011;16389;50.126;8.450;2022-11-11T00:49:16;14.63;;;6.60;;
29412;SDS011;16389;50.126;8.450;2022-11-11T00:52:00;11.38;;;6.30;;
29412;SDS011;16389;50.126;8.450;2022-11-11T00:54:25;11.27;;;6.80;;
29412;SDS011;16389;50.126;8.450;2022-11-11T00:56:51;12.73;;;6.05;;
29412;SDS011;16389;50.126;8.450;2022-11-11T00:59:17;9.60;;;5.57;;
29412;SDS011;16389;50.126;8.450;2022-11-11T01:01:42;11.45;;;5.50;;
29412;SDS011;16389;50.126;8.450;2022-11-11T01:04:08;11.68;;;5.80;;
29412;SDS011;16389;50.126;8.450;2022-11-11T01:06:33;17.38;;;6.72;;
29412;SDS011;16389;50.126;8.450;2022-11-11T01:09:03;14.55;;;6.43;;
29412;SDS011;16389;50.126;8.450;2022-11-11T01:11:30;12.00;;;6.03;;
29412;SDS011;16389;50.126;8.450;2022-11-11T01:13:55;8.45;;;5.63;;
29412;SDS011;16389;50.126;8.450;2022-11-11T01:16:22;13.63;;;5.68;;
29412;SDS011;16389;50.126;8.450;2022-11-11T01:18:49;11.93;;;5.35;;
29412;SDS011;16389;50.126;8.450;2022-11-11T01:21:17;9.52;;;5.45;;
29412;SDS011;16389;50.126;8.450;2022-11-11T01:23:48;11.30;;;6.60;;
29412;SDS011;16389;50.126;8.450;2022-11-11T01:26:18;12.70;;;6.45;;
29412;SDS011;16389;50.126;8.450;2022-11-11T01:28:49;10.48;;;5.25;;
29412;SDS011;16389;50.126;8.450;2022-11-11T01:31:16;13.00;;;5.28;;
29412;SDS011;16389;50.126;8.450;2022-11-11T01:33:43;14.13;;;4.90;;
29412;SDS011;16389;50.126;8.450;2022-11-11T01:38:37;11.52;;;6.15;;
29412;SDS011;16389;50.126;8.450;2022-11-11T01:41:12;14.40;;;6.55;;
29412;SDS011;16389;50.126;8.450;2022-11-11T01:43:58;8.00;;;3.70;;
29412;SDS011;16389;50.126;8.450;2022-11-11T01:46:44;13.23;;;5.60;;
29412;SDS011;16389;50.126;8.450;2022-11-11T01:49:32;12.88;;;5.72;;
29412;SDS011;16389;50.126;8.450;2022-11-11T01:55:05;10.02;;;4.75;;
29412;SDS011;16389;50.126;8.450;2022-11-11T02:00:05;12.75;;;5.10;;
29412;SDS011;16389;50.126;8.450;2022-11-11T02:02:34;13.48;;;5.00;;
29412;SDS011;16389;50.126;8.450;2022-11-11T02:05:05;9.20;;;4.75;;
29412;SDS011;16389;50.126;8.450;2022-11-11T02:07:52;9.27;;;5.20;;
29412;SDS011;16389;50.126;8.450;2022-11-11T02:10:20;11.65;;;5.88;;
29412;SDS011;16389;50.126;8.450;2022-11-11T02:12:48;7.93;;;5.03;;
29412;SDS011;16389;50.126;8.450;2022-11-11T02:15:32;9.95;;;5.43;;
29412;SDS011;16389;50.126;8.450;2022-11-11T02:17:58;14.27;;;5.80;;
29412;SDS011;16389;50.126;8.450;2022-11-11T02:20:25;9.00;;;5.18;;
29412;SDS011;16389;50.126;8.450;2022-11-11T02:23:11;12.18;;;4.97;;
29412;SDS011;16389;50.126;8.450;2022-11-11T02:25:44;10.38;;;4.50;;
29412;SDS011;16389;50.126;8.450;2022-11-11T02:28:12;11.23;;;5.22;;
29412;SDS011;16389;50.126;8.450;2022-11-11T02:30:39;17.45;;;5.15;;
29412;SDS011;16389;50.126;8.450;2022-11-11T02:33:04;11.35;;;4.93;;
29412;SDS011;16389;50.126;8.450;2022-11-11T02:35:34;13.60;;;5.55;;
29412;SDS011;16389;50.126;8.450;2022-11-11T02:38:05;13.05;;;5.53;;
29412;SDS011;16389;50.126;8.450;2022-11-11T02:40:40;14.82;;;4.55;;
29412;SDS011;16389;50.126;8.450;2022-11-11T02:43:26;11.95;;;5.55;;
29412;SDS011;16389;50.126;8.450;2022-11-11T02:45:52;8.02;;;4.35;;
29412;SDS011;16389;50.126;8.450;2022-11-11T02:48:17;9.93;;;4.68;;
29412;SDS011;16389;50.126;8.450;2022-11-11T02:50:43;8.38;;;4.95;;
29412;SDS011;16389;50.126;8.450;2022-11-11T02:53:08;14.65;;;4.75;;
29412;SDS011;16389;50.126;8.450;2022-11-11T02:55:34;7.40;;;4.15;;
29412;SDS011;16389;50.126;8.450;2022-11-11T02:58:00;15.27;;;4.88;;
29412;SDS011;16389;50.126;8.450;2022-11-11T03:00:25;8.45;;;4.22;;
29412;SDS011;16389;50.126;8.450;2022-11-11T03:02:51;12.45;;;3.95;;
29412;SDS011;16389;50.126;8.450;2022-11-11T03:05:17;6.45;;;3.88;;
29412;SDS011;16389;50.126;8.450;2022-11-11T03:07:42;7.22;;;4.18;;
29412;SDS011;16389;50.126;8.450;2022-11-11T03:10:08;10.20;;;3.85;;
29412;SDS011;16389;50.126;8.450;2022-11-11T03:12:34;6.72;;;3.95;;
29412;SDS011;16389;50.126;8.450;2022-11-11T03:14:59;17.75;;;4.70;;
29412;SDS011;16389;50.126;8.450;2022-11-11T03:17:25;8.00;;;4.00;;
29412;SDS011;16389;50.126;8.450;2022-11-11T03:22:58;10.80;;;4.70;;
29412;SDS011;16389;50.126;8.450;2022-11-11T03:25:24;9.93;;;4.47;;
29412;SDS011;16389;50.126;8.450;2022-11-11T03:28:01;11.80;;;5.15;;
29412;SDS011;16389;50.126;8.450;2022-11-11T03:30:28;11.10;;;4.32;;
29412;SDS011;16389;50.126;8.450;2022-11-11T03:32:53;9.15;;;4.03;;
29412;SDS011;16389;50.126;8.450;2022-11-11T03:35:19;13.45;;;4.95;;
29412;SDS011;16389;50.126;8.450;2022-11-11T03:37:44;10.52;;;4.18;;
29412;SDS011;16389;50.126;8.450;2022-11-11T03:40:33;9.82;;;5.55;;
29412;SDS011;16389;50.126;8.450;2022-11-11T03:42:58;7.53;;;4.25;;
29412;SDS011;16389;50.126;8.450;2022-11-11T03:45:24;9.10;;;5.20;;
29412;SDS011;16389;50.126;8.450;2022-11-11T03:47:50;8.80;;;4.72;;
29412;SDS011;16389;50.126;8.450;2022-11-11T03:50:15;10.38;;;4.57;;
29412;SDS011;16389;50.126;8.450;2022-11-11T03:52:41;17.63;;;5.22;;
29412;SDS011;16389;50.126;8.450;2022-11-11T03:55:08;7.15;;;4.57;;
29412;SDS011;16389;50.126;8.450;2022-11-11T03:57:34;9.10;;;5.18;;
29412;SDS011;16389;50.126;8.450;2022-11-11T04:00:04;10.45;;;4.38;;
29412;SDS011;16389;50.126;8.450;2022-11-11T04:02:30;6.93;;;3.72;;
29412;SDS011;16389;50.126;8.450;2022-11-11T04:05:14;9.48;;;4.45;;
29412;SDS011;16389;50.126;8.450;2022-11-11T04:07:58;7.43;;;3.83;;
29412;SDS011;16389;50.126;8.450;2022-11-11T04:10:42;10.82;;;4.95;;
29412;SDS011;16389;50.126;8.450;2022-11-11T04:13:08;7.28;;;4.28;;
29412;SDS011;16389;50.126;8.450;2022-11-11T04:15:52;9.90;;;4.40;;
29412;SDS011;16389;50.126;8.450;2022-11-11T04:18:30;9.57;;;4.93;;
29412;SDS011;16389;50.126;8.450;2022-11-11T04:21:15;8.77;;;5.00;;
29412;SDS011;16389;50.126;8.450;2022-11-11T04:23:59;9.23;;;5.07;;
29412;SDS011;16389;50.126;8.450;2022-11-11T04:26:25;5.20;;;3.55;;
29412;SDS011;16389;50.126;8.450;2022-11-11T04:28:51;14.20;;;5.72;;
29412;SDS011;16389;50.126;8.450;2022-11-11T04:31:35;11.93;;;5.97;;
29412;SDS011;16389;50.126;8.450;2022-11-11T04:34:21;8.90;;;4.65;;
29412;SDS011;16389;50.126;8.450;2022-11-11T04:36:47;9.60;;;4.85;;
29412;SDS011;16389;50.126;8.450;2022-11-11T04:39:12;8.02;;;4.75;;
29412;SDS011;16389;50.126;8.450;2022-11-11T04:41:56;11.88;;;5.07;;
29412;SDS011;16389;50.126;8.450;2022-11-11T04:44:22;10.73;;;4.97;;
29412;SDS011;16389;50.126;8.450;2022-11-11T04:47:06;9.88;;;5.35;;
29412;SDS011;16389;50.126;8.450;2022-11-11T04:49:31;11.40;;;5.20;;
29412;SDS011;16389;50.126;8.450;2022-11-11T04:51:57;10.77;;;4.85;;
29412;SDS011;16389;50.126;8.450;2022-11-11T04:54:48;9.52;;;4.63;;
29412;SDS011;16389;50.126;8.450;2022-11-11T04:57:33;10.32;;;5.07;;
29412;SDS011;16389;50.126;8.450;2022-11-11T04:59:58;6.43;;;4.20;;
29412;SDS011;16389;50.126;8.450;2022-11-11T05:02:24;10.38;;;4.18;;
29412;SDS011;16389;50.126;8.450;2022-11-11T05:05:08;10.82;;;5.18;;
29412;SDS011;16389;50.126;8.450;2022-11-11T05:07:33;9.27;;;5.35;;
29412;SDS011;16389;50.126;8.450;2022-11-11T05:10:17;14.63;;;5.38;;
29412;SDS011;16389;50.126;8.450;2022-11-11T05:12:45;12.68;;;4.60;;
29412;SDS011;16389;50.126;8.450;2022-11-11T05:15:12;10.15;;;5.40;;
29412;SDS011;16389;50.126;8.450;2022-11-11T05:17:56;9.65;;;5.07;;
29412;SDS011;16389;50.126;8.450;2022-11-11T05:20:40;16.48;;;5.22;;
29412;SDS011;16389;50.126;8.450;2022-11-11T05:23:24;12.90;;;6.40;;
29412;SDS011;16389;50.126;8.450;2022-11-11T05:26:10;10.93;;;5.70;;
29412;SDS011;16389;50.126;8.450;2022-11-11T05:28:35;10.90;;;5.68;;
29412;SDS011;16389;50.126;8.450;2022-11-11T05:31:01;11.40;;;5.30;;
29412;SDS011;16389;50.126;8.450;2022-11-11T05:33:26;13.18;;;5.50;;
29412;SDS011;16389;50.126;8.450;2022-11-11T05:35:52;11.43;;;4.70;;
29412;SDS011;16389;50.126;8.450;2022-11-11T05:38:17;15.35;;;5.35;;
29412;SDS011;16389;50.126;8.450;2022-11-11T05:40:46;10.38;;;5.53;;
29412;SDS011;16389;50.126;8.450;2022-11-11T05:43:11;14.73;;;5.95;;
29412;SDS011;16389;50.126;8.450;2022-11-11T05:45:37;10.23;;;5.20;;
29412;SDS011;16389;50.126;8.450;2022-11-11T05:48:05;19.35;;;6.50;;
29412;SDS011;16389;50.126;8.450;2022-11-11T05:50:30;17.65;;;6.40;;
29412;SDS011;16389;50.126;8.450;2022-11-11T05:52:56;16.70;;;6.18;;
29412;SDS011;16389;50.126;8.450;2022-11-11T05:55:21;10.63;;;5.38;;
29412;SDS011;16389;50.126;8.450;2022-11-11T05:57:47;17.52;;;5.85;;
29412;SDS011;16389;50.126;8.450;2022-11-11T06:00:13;11.80;;;5.75;;
29412;SDS011;16389;50.126;8.450;2022-11-11T06:02:39;13.23;;;5.50;;
29412;SDS011;16389;50.126;8.450;2022-11-11T06:05:05;10.75;;;5.40;;
29412;SDS011;16389;50.126;8.450;2022-11-11T06:07:32;16.80;;;6.60;;
29412;SDS011;16389;50.126;8.450;2022-11-11T06:10:01;13.35;;;5.57;;
29412;SDS011;16389;50.126;8.450;2022-11-11T06:12:46;9.77;;;5.78;;
29412;SDS011;16389;50.126;8.450;2022-11-11T06:15:33;10.07;;;5.93;;
29412;SDS011;16389;50.126;8.450;2022-11-11T06:18:03;12.32;;;6.07;;
29412;SDS011;16389;50.126;8.450;2022-11-11T06:20:29;10.73;;;5.40;;
29412;SDS011;16389;50.126;8.450;2022-11-11T06:22:56;9.60;;;6.50;;
29412;SDS011;16389;50.126;8.450;2022-11-11T06:25:23;13.95;;;6.45;;
29412;SDS011;16389;50.126;8.450;2022-11-11T06:28:08;15.35;;;6.45;;
29412;SDS011;16389;50.126;8.450;2022-11-11T06:30:34;10.77;;;6.45;;
29412;SDS011;16389;50.126;8.450;2022-11-11T06:33:00;19.30;;;6.63;;
29412;SDS011;16389;50.126;8.450;2022-11-11T06:35:26;10.80;;;6.38;;
29412;SDS011;16389;50.126;8.450;2022-11-11T06:37:51;10.50;;;6.45;;
29412;SDS011;16389;50.126;8.450;2022-11-11T06:40:17;12.15;;;7.20;;
29412;SDS011;16389;50.126;8.450;2022-11-11T06:42:43;13.48;;;6.70;;
29412;SDS011;16389;50.126;8.450;2022-11-11T06:45:08;16.02;;;7.40;;
29412;SDS011;16389;50.126;8.450;2022-11-11T06:47:34;16.70;;;6.93;;
29412;SDS011;16389;50.126;8.450;2022-11-11T06:50:00;13.98;;;6.82;;
29412;SDS011;16389;50.126;8.450;2022-11-11T06:52:25;18.42;;;6.18;;
29412;SDS011;16389;50.126;8.450;2022-11-11T06:54:51;10.13;;;5.57;;
29412;SDS011;16389;50.126;8.450;2022-11-11T06:57:16;12.48;;;6.15;;
29412;SDS011;16389;50.126;8.450;2022-11-11T06:59:42;17.90;;;6.22;;
29412;SDS011;16389;50.126;8.450;2022-11-11T07:02:14;11.30;;;6.60;;
29412;SDS011;16389;50.126;8.450;2022-11-11T07:04:39;14.25;;;7.35;;
29412;SDS011;16389;50.126;8.450;2022-11-11T07:07:05;11.23;;;5.60;;
29412;SDS011;16389;50.126;8.450;2022-11-11T07:09:31;12.98;;;5.60;;
29412;SDS011;16389;50.126;8.450;2022-11-11T07:11:56;12.60;;;5.47;;
29412;SDS011;16389;50.126;8.450;2022-11-11T07:14:22;10.70;;;4.82;;
29412;SDS011;16389;50.126;8.450;2022-11-11T07:16:47;9.27;;;5.07;;
29412;SDS011;16389;50.126;8.450;2022-11-11T07:19:13;7.78;;;5.40;;
29412;SDS011;16389;50.126;8.450;2022-11-11T07:21:38;12.65;;;4.88;;
29412;SDS011;16389;50.126;8.450;2022-11-11T07:24:04;12.25;;;5.18;;
29412;SDS011;16389;50.126;8.450;2022-11-11T07:26:30;15.25;;;6.22;;
29412;SDS011;16389;50.126;8.450;2022-11-11T07:28:55;11.60;;;5.78;;
29412;SDS011;16389;50.126;8.450;2022-11-11T07:31:21;9.95;;;5.35;;
29412;SDS011;16389;50.126;8.450;2022-11-11T07:33:46;16.98;;;6.32;;
29412;SDS011;16389;50.126;8.450;2022-11-11T07:36:12;9.10;;;5.82;;
29412;SDS011;16389;50.126;8.450;2022-11-11T07:38:37;10.40;;;5.80;;
29412;SDS011;16389;50.126;8.450;2022-11-11T07:41:03;21.10;;;7.13;;
29412;SDS011;16389;50.126;8.450;2022-11-11T07:43:29;15.65;;;7.32;;
29412;SDS011;16389;50.126;8.450;2022-11-11T07:45:54;45.88;;;18.90;;
29412;SDS011;16389;50.126;8.450;2022-11-11T07:48:20;55.00;;;16.52;;
29412;SDS011;16389;50.126;8.450;2022-11-11T07:50:46;20.95;;;9.43;;
29412;SDS011;16389;50.126;8.450;2022-11-11T07:53:11;30.70;;;13.35;;
29412;SDS011;16389;50.126;8.450;2022-11-11T07:55:37;53.17;;;20.42;;
29412;SDS011;16389;50.126;8.450;2022-11-11T07:58:03;22.20;;;8.98;;
29412;SDS011;16389;50.126;8.450;2022-11-11T08:00:28;13.93;;;6.50;;
29412;SDS011;16389;50.126;8.450;2022-11-11T08:02:54;9.40;;;5.65;;
29412;SDS011;16389;50.126;8.450;2022-11-11T08:05:19;11.52;;;6.25;;
29412;SDS011;16389;50.126;8.450;2022-11-11T08:07:45;10.75;;;6.03;;
29412;SDS011;16389;50.126;8.450;2022-11-11T08:10:10;15.68;;;6.78;;
29412;SDS011;16389;50.126;8.450;2022-11-11T08:12:36;12.50;;;5.63;;
29412;SDS011;16389;50.126;8.450;2022-11-11T08:15:21;7.20;;;5.03;;
29412;SDS011;16389;50.126;8.450;2022-11-11T08:17:47;11.18;;;4.32;;
29412;SDS011;16389;50.126;8.450;2022-11-11T08:20:12;9.10;;;4.97;;
29412;SDS011;16389;50.126;8.450;2022-11-11T08:22:38;10.27;;;6.47;;
29412;SDS011;16389;50.126;8.450;2022-11-11T08:25:09;41.65;;;12.75;;
29412;SDS011;16389;50.126;8.450;2022-11-11T08:27:38;104.32;;;30.92;;
29412;SDS011;16389;50.126;8.450;2022-11-11T08:30:04;46.03;;;15.95;;
29412;SDS011;16389;50.126;8.450;2022-11-11T08:32:31;13.65;;;8.27;;
29412;SDS011;16389;50.126;8.450;2022-11-11T08:34:57;18.98;;;8.40;;
29412;SDS011;16389;50.126;8.450;2022-11-11T08:37:23;13.80;;;6.40;;
29412;SDS011;16389;50.126;8.450;2022-11-11T08:39:48;17.50;;;9.68;;
29412;SDS011;16389;50.126;8.450;2022-11-11T08:42:16;15.70;;;5.88;;
29412;SDS011;16389;50.126;8.450;2022-11-11T08:44:42;15.05;;;5.80;;
29412;SDS011;16389;50.126;8.450;2022-11-11T08:47:08;8.10;;;5.35;;
29412;SDS011;16389;50.126;8.450;2022-11-11T08:49:33;10.85;;;6.22;;
29412;SDS011;16389;50.126;8.450;2022-11-11T08:51:59;10.95;;;5.63;;
29412;SDS011;16389;50.126;8.450;2022-11-11T08:54:25;8.57;;;5.28;;
29412;SDS011;16389;50.126;8.450;2022-11-11T08:56:51;10.50;;;5.57;;
29412;SDS011;16389;50.126;8.450;2022-11-11T08:59:16;7.78;;;5.43;;
29412;SDS011;16389;50.126;8.450;2022-11-11T09:01:42;6.75;;;4.47;;
29412;SDS011;16389;50.126;8.450;2022-11-11T09:04:08;6.65;;;4.70;;
29412;SDS011;16389;50.126;8.450;2022-11-11T09:06:33;7.43;;;4.55;;
29412;SDS011;16389;50.126;8.450;2022-11-11T09:08:59;8.90;;;5.70;;
29412;SDS011;16389;50.126;8.450;2022-11-11T09:11:25;9.63;;;6.45;;
29412;SDS011;16389;50.126;8.450;2022-11-11T09:13:51;7.75;;;5.88;;
29412;SDS011;16389;50.126;8.450;2022-11-11T09:16:17;11.43;;;6.95;;
29412;SDS011;16389;50.126;8.450;2022-11-11T09:18:42;13.88;;;6.03;;
29412;SDS011;16389;50.126;8.450;2022-11-11T09:21:08;10.20;;;6.25;;
29412;SDS011;16389;50.126;8.450;2022-11-11T09:23:34;12.07;;;8.75;;
29412;SDS011;16389;50.126;8.450;2022-11-11T09:26:00;12.60;;;6.55;;
29412;SDS011;16389;50.126;8.450;2022-11-11T09:28:28;7.72;;;6.18;;
29412;SDS011;16389;50.126;8.450;2022-11-11T09:30:57;16.45;;;6.05;;
29412;SDS011;16389;50.126;8.450;2022-11-11T09:33:27;9.88;;;6.25;;
29412;SDS011;16389;50.126;8.450;2022-11-11T09:35:52;7.13;;;5.25;;
29412;SDS011;16389;50.126;8.450;2022-11-11T09:38:18;8.75;;;5.47;;
29412;SDS011;16389;50.126;8.450;2022-11-11T09:40:52;9.05;;;5.38;;
29412;SDS011;16389;50.126;8.450;2022-11-11T09:43:24;8.95;;;5.57;;
29412;SDS011;16389;50.126;8.450;2022-11-11T09:51:08;11.10;;;5.78;;
29412;SDS011;16389;50.126;8.450;2022-11-11T09:53:49;7.82;;;4.97;;
29412;SDS011;16389;50.126;8.450;2022-11-11T09:56:18;8.05;;;5.10;;
29412;SDS011;16389;50.126;8.450;2022-11-11T09:58:51;9.13;;;4.60;;
29412;SDS011;16389;50.126;8.450;2022-11-11T10:01:27;7.32;;;5.53;;
29412;SDS011;16389;50.126;8.450;2022-11-11T10:03:59;10.45;;;5.50;;
29412;SDS011;16389;50.126;8.450;2022-11-11T10:06:30;8.32;;;5.05;;
29412;SDS011;16389;50.126;8.450;2022-11-11T10:08:58;10.02;;;6.85;;
29412;SDS011;16389;50.126;8.450;2022-11-11T10:11:45;13.18;;;6.05;;
29412;SDS011;16389;50.126;8.450;2022-11-11T10:14:31;9.10;;;5.45;;
29412;SDS011;16389;50.126;8.450;2022-11-11T10:17:22;8.82;;;4.72;;
29412;SDS011;16389;50.126;8.450;2022-11-11T10:22:49;7.30;;;4.43;;
29412;SDS011;16389;50.126;8.450;2022-11-11T10:25:25;8.02;;;5.70;;
29412;SDS011;16389;50.126;8.450;2022-11-11T10:27:53;6.22;;;4.55;;
29412;SDS011;16389;50.126;8.450;2022-11-11T10:30:31;7.45;;;3.90;;
29412;SDS011;16389;50.126;8.450;2022-11-11T10:35:28;8.05;;;4.43;;
29412;SDS011;16389;50.126;8.450;2022-11-11T10:40:40;6.97;;;4.35;;
29412;SDS011;16389;50.126;8.450;2022-11-11T10:43:17;7.25;;;5.13;;
29412;SDS011;16389;50.126;8.450;2022-11-11T10:45:54;9.02;;;4.85;;
29412;SDS011;16389;50.126;8.450;2022-11-11T10:48:49;9.30;;;4.47;;
29412;SDS011;16389;50.126;8.450;2022-11-11T10:51:17;7.03;;;4.78;;
29412;SDS011;16389;50.126;8.450;2022-11-11T10:59:05;6.80;;;4.97;;
29412;SDS011;16389;50.126;8.450;2022-11-11T11:01:51;6.63;;;4.65;;
29412;SDS011;16389;50.126;8.450;2022-11-11T11:07:10;7.57;;;5.70;;
29412;SDS011;16389;50.126;8.450;2022-11-11T11:09:44;6.88;;;5.10;;
29412;SDS011;16389;50.126;8.450;2022-11-11T11:12:29;6.90;;;4.05;;
29412;SDS011;16389;50.126;8.450;2022-11-11T11:15:10;7.32;;;4.03;;
29412;SDS011;16389;50.126;8.450;2022-11-11T11:18:16;5.93;;;4.63;;
29412;SDS011;16389;50.126;8.450;2022-11-11T11:20:37;5.70;;;4.30;;
29412;SDS011;16389;50.126;8.450;2022-11-11T11:23:33;7.65;;;5.00;;
29412;SDS011;16389;50.126;8.450;2022-11-11T11:26:04;6.57;;;4.20;;
29412;SDS011;16389;50.126;8.450;2022-11-11T11:28:31;5.68;;;4.03;;
29412;SDS011;16389;50.126;8.450;2022-11-11T11:31:05;7.35;;;4.28;;
29412;SDS011;16389;50.126;8.450;2022-11-11T11:36:02;6.85;;;4.55;;
29412;SDS011;16389;50.126;8.450;2022-11-11T11:38:42;5.85;;;4.45;;
29412;SDS011;16389;50.126;8.450;2022-11-11T11:41:11;7.88;;;5.55;;
29412;SDS011;16389;50.126;8.450;2022-11-11T11:43:38;8.82;;;4.85;;
29412;SDS011;16389;50.126;8.450;2022-11-11T11:55:04;10.93;;;5.07;;
29412;SDS011;16389;50.126;8.450;2022-11-11T12:00:22;7.95;;;5.40;;
29412;SDS011;16389;50.126;8.450;2022-11-11T12:06:01;9.55;;;5.85;;
29412;SDS011;16389;50.126;8.450;2022-11-11T12:08:54;9.88;;;6.85;;
29412;SDS011;16389;50.126;8.450;2022-11-11T12:17:29;11.10;;;6.55;;
29412;SDS011;16389;50.126;8.450;2022-11-11T12:24:02;20.13;;;9.30;;
29412;SDS011;16389;50.126;8.450;2022-11-11T12:29:02;11.10;;;8.20;;
29412;SDS011;16389;50.126;8.450;2022-11-11T12:45:45;17.77;;;9.35;;
29412;SDS011;16389;50.126;8.450;2022-11-11T12:48:26;16.10;;;8.57;;
29412;SDS011;16389;50.126;8.450;2022-11-11T13:07:48;17.35;;;8.57;;
29412;SDS011;16389;50.126;8.450;2022-11-11T13:16:29;12.60;;;8.07;;
29412;SDS011;16389;50.126;8.450;2022-11-11T13:19:13;16.13;;;8.45;;
29412;SDS011;16389;50.126;8.450;2022-11-11T13:21:54;14.25;;;9.73;;
29412;SDS011;16389;50.126;8.450;2022-11-11T13:24:25;21.67;;;9.52;;
29412;SDS011;16389;50.126;8.450;2022-11-11T13:27:02;14.60;;;9.35;;
29412;SDS011;16389;50.126;8.450;2022-11-11T13:32:08;15.55;;;9.98;;
29412;SDS011;16389;50.126;8.450;2022-11-11T13:34:37;22.20;;;9.85;;
29412;SDS011;16389;50.126;8.450;2022-11-11T13:37:06;16.63;;;10.07;;
29412;SDS011;16389;50.126;8.450;2022-11-11T13:39:38;17.95;;;9.45;;
29412;SDS011;16389;50.126;8.450;2022-11-11T13:42:10;17.95;;;10.00;;
29412;SDS011;16389;50.126;8.450;2022-11-11T13:47:13;23.75;;;9.98;;
29412;SDS011;16389;50.126;8.450;2022-11-11T13:49:52;18.00;;;10.00;;
29412;SDS011;16389;50.126;8.450;2022-11-11T13:52:25;19.60;;;9.80;;
29412;SDS011;16389;50.126;8.450;2022-11-11T13:54:57;16.70;;;10.02;;
29412;SDS011;16389;50.126;8.450;2022-11-11T13:57:30;19.50;;;10.40;;
29412;SDS011;16389;50.126;8.450;2022-11-11T14:02:29;17.23;;;9.48;;
29412;SDS011;16389;50.126;8.450;2022-11-11T14:20:43;20.60;;;10.85;;
29412;SDS011;16389;50.126;8.450;2022-11-11T14:23:15;16.73;;;9.52;;
29412;SDS011;16389;50.126;8.450;2022-11-11T14:33:41;23.17;;;12.88;;
29412;SDS011;16389;50.126;8.450;2022-11-11T14:37:08;28.92;;;14.48;;
29412;SDS011;16389;50.126;8.450;2022-11-11T14:42:01;16.40;;;9.43;;
29412;SDS011;16389;50.126;8.450;2022-11-11T14:55:00;14.27;;;9.40;;
29412;SDS011;16389;50.126;8.450;2022-11-11T14:57:57;15.30;;;9.57;;
29412;SDS011;16389;50.126;8.450;2022-11-11T15:00:33;14.45;;;8.70;;
29412;SDS011;16389;50.126;8.450;2022-11-11T15:03:14;18.45;;;9.57;;
29412;SDS011;16389;50.126;8.450;2022-11-11T15:06:03;14.93;;;8.80;;
29412;SDS011;16389;50.126;8.450;2022-11-11T15:08:44;17.85;;;9.52;;
29412;SDS011;16389;50.126;8.450;2022-11-11T15:11:24;14.38;;;9.10;;
29412;SDS011;16389;50.126;8.450;2022-11-11T15:25:10;22.85;;;10.45;;
29412;SDS011;16389;50.126;8.450;2022-11-11T15:36:30;17.15;;;9.13;;
29412;SDS011;16389;50.126;8.450;2022-11-11T15:39:04;16.58;;;8.07;;
29412;SDS011;16389;50.126;8.450;2022-11-11T15:41:37;15.93;;;7.93;;
29412;SDS011;16389;50.126;8.450;2022-11-11T15:44:13;12.25;;;8.35;;
29412;SDS011;16389;50.126;8.450;2022-11-11T15:46:45;13.60;;;7.97;;
29412;SDS011;16389;50.126;8.450;2022-11-11T15:49:58;14.68;;;7.47;;
29412;SDS011;16389;50.126;8.450;2022-11-11T15:54:47;13.00;;;7.80;;
29412;SDS011;16389;50.126;8.450;2022-11-11T15:57:34;12.07;;;7.03;;
29412;SDS011;16389;50.126;8.450;2022-11-11T16:00:00;12.80;;;8.02;;
29412;SDS011;16389;50.126;8.450;2022-11-11T16:02:43;15.63;;;8.38;;
29412;SDS011;16389;50.126;8.450;2022-11-11T16:05:14;15.80;;;8.63;;
29412;SDS011;16389;50.126;8.450;2022-11-11T16:07:45;20.85;;;9.18;;
29412;SDS011;16389;50.126;8.450;2022-11-11T16:10:17;17.55;;;9.00;;
29412;SDS011;16389;50.126;8.450;2022-11-11T16:17:50;16.50;;;10.48;;
29412;SDS011;16389;50.126;8.450;2022-11-11T16:20:21;20.00;;;10.27;;
29412;SDS011;16389;50.126;8.450;2022-11-11T16:22:53;32.53;;;7.88;;
29412;SDS011;16389;50.126;8.450;2022-11-11T16:25:23;21.00;;;6.97;;
29412;SDS011;16389;50.126;8.450;2022-11-11T16:27:49;36.60;;;8.50;;
29412;SDS011;16389;50.126;8.450;2022-11-11T16:32:58;18.40;;;7.10;;
29412;SDS011;16389;50.126;8.450;2022-11-11T16:37:56;19.85;;;6.13;;
29412;SDS011;16389;50.126;8.450;2022-11-11T16:40:24;36.40;;;7.38;;
29412;SDS011;16389;50.126;8.450;2022-11-11T16:42:52;21.73;;;8.75;;
29412;SDS011;16389;50.126;8.450;2022-11-11T16:45:18;26.63;;;6.97;;
29412;SDS011;16389;50.126;8.450;2022-11-11T16:47:46;29.50;;;8.27;;
29412;SDS011;16389;50.126;8.450;2022-11-11T16:52:53;27.52;;;6.35;;
29412;SDS011;16389;50.126;8.450;2022-11-11T16:57:49;18.10;;;9.38;;
29412;SDS011;16389;50.126;8.450;2022-11-11T17:00:17;18.60;;;8.63;;
29412;SDS011;16389;50.126;8.450;2022-11-11T17:02:56;23.65;;;7.45;;
29412;SDS011;16389;50.126;8.450;2022-11-11T17:05:52;18.40;;;8.23;;
29412;SDS011;16389;50.126;8.450;2022-11-11T17:11:05;29.85;;;9.13;;
29412;SDS011;16389;50.126;8.450;2022-11-11T17:13:33;24.95;;;7.57;;
29412;SDS011;16389;50.126;8.450;2022-11-11T17:16:03;18.85;;;10.02;;
29412;SDS011;16389;50.126;8.450;2022-11-11T17:18:35;32.10;;;10.73;;
29412;SDS011;16389;50.126;8.450;2022-11-11T17:21:03;16.48;;;9.23;;
29412;SDS011;16389;50.126;8.450;2022-11-11T17:23:29;19.63;;;8.27;;
29412;SDS011;16389;50.126;8.450;2022-11-11T17:25:55;19.63;;;8.77;;
29412;SDS011;16389;50.126;8.450;2022-11-11T17:28:25;32.80;;;6.88;;
29412;SDS011;16389;50.126;8.450;2022-11-11T17:30:54;19.58;;;6.70;;
29412;SDS011;16389;50.126;8.450;2022-11-11T17:33:19;17.30;;;7.22;;
29412;SDS011;16389;50.126;8.450;2022-11-11T17:35:52;13.40;;;6.80;;
29412;SDS011;16389;50.126;8.450;2022-11-11T17:38:18;13.43;;;5.63;;
29412;SDS011;16389;50.126;8.450;2022-11-11T17:40:44;15.30;;;5.95;;
29412;SDS011;16389;50.126;8.450;2022-11-11T17:43:14;24.45;;;6.97;;
29412;SDS011;16389;50.126;8.450;2022-11-11T17:45:40;19.88;;;7.25;;
29412;SDS011;16389;50.126;8.450;2022-11-11T17:48:07;13.93;;;6.90;;
29412;SDS011;16389;50.126;8.450;2022-11-11T17:50:34;14.20;;;7.97;;
29412;SDS011;16389;50.126;8.450;2022-11-11T17:53:01;19.88;;;8.43;;
29412;SDS011;16389;50.126;8.450;2022-11-11T17:55:28;24.70;;;8.20;;
29412;SDS011;16389;50.126;8.450;2022-11-11T17:57:56;14.90;;;7.75;;
29412;SDS011;16389;50.126;8.450;2022-11-11T18:00:22;16.85;;;7.15;;
29412;SDS011;16389;50.126;8.450;2022-11-11T18:02:48;16.80;;;7.97;;
29412;SDS011;16389;50.126;8.450;2022-11-11T18:05:14;13.00;;;8.32;;